Time;durP1;ratioP1;P1;durP2;ratioP2;P2;SDS_P1;SDS_P2;PMS_P1;PMS_P2;Temp;Humidity;BMP_temperature;BMP_pressure;BME280_temperature;BME280_humidity;BME280_pressure;Samples;Min_cycle;Max_cycle;Signal;HPM_P1;HPM_P2
2023/04/12 00:02:20;;;;;;;1129.82;999.90;;;;;;;21.33;48.98;99718.66;20676854;28;20093;-74
2023/04/12 00:12:21;;;;;;;1091.18;999.90;;;;;;;21.32;48.67;99723.09;20670065;28;20077;-74
2023/04/12 00:22:21;;;;;;;1051.05;967.50;;;;;;;21.31;48.84;99717.97;20676928;28;20573;-73
2023/04/12 00:32:26;;;;;;;1103.85;999.90;;;;;;;21.28;48.88;99711.19;20669084;28;20062;-73
2023/04/12 00:42:26;;;;;;;1094.70;999.90;;;;;;;21.24;48.44;99707.97;20680498;28;20049;-73
2023/04/12 00:52:32;;;;;;;1093.95;999.90;;;;;;;21.24;48.40;99715.06;20678183;28;20046;-74
2023/04/12 01:02:34;;;;;;;1114.50;999.90;;;;;;;21.21;48.56;99707.41;20660519;28;20153;-73
2023/04/12 01:13:12;;;;;;;1131.85;999.90;;;;;;;21.21;48.30;99707.41;20670948;28;20057;-73
2023/04/12 01:23:25;;;;;;;1157.47;999.90;;;;;;;21.18;48.66;99711.16;20624608;28;20105;-74
2023/04/12 01:33:30;;;;;;;1158.30;999.90;;;;;;;21.16;48.57;99694.66;20606361;28;20046;-74
2023/04/12 01:43:30;;;;;;;1154.10;999.90;;;;;;;21.15;48.69;99694.78;20600895;28;20050;-74
2023/04/12 01:53:42;;;;;;;1158.22;999.90;;;;;;;21.14;48.89;99674.69;20603361;28;20039;-74
2023/04/12 02:03:44;;;;;;;1157.90;999.90;;;;;;;21.10;48.38;99693.41;20597623;28;20039;-73
2023/04/12 02:13:45;;;;;;;1158.00;999.90;;;;;;;21.05;48.69;99706.13;20603045;28;20046;-73
2023/04/12 02:23:45;;;;;;;1163.63;999.90;;;;;;;21.04;48.67;99706.28;20593626;28;20054;-73
2023/04/12 02:33:47;;;;;;;1158.70;999.90;;;;;;;21.03;48.26;99708.09;20597384;28;20093;-73
2023/04/12 02:43:48;;;;;;;1158.50;999.90;;;;;;;21.02;48.92;99695.88;20599640;28;20034;-72
2023/04/12 02:53:49;;;;;;;1147.07;999.90;;;;;;;20.99;48.46;99682.97;20591088;28;20039;-73
2023/04/12 03:03:49;;;;;;;1144.47;999.90;;;;;;;21.00;48.43;99697.00;20601512;28;20038;-72
2023/04/12 03:13:51;;;;;;;1142.00;999.90;;;;;;;20.97;48.31;99686.72;20605142;28;20062;-74
2023/04/12 03:23:51;;;;;;;1143.75;999.90;;;;;;;20.94;48.39;99696.53;20595701;28;20042;-74
2023/04/12 03:33:52;;;;;;;1131.55;999.90;;;;;;;20.91;48.53;99694.19;20598451;28;20053;-74
2023/04/12 03:43:53;;;;;;;1132.28;999.90;;;;;;;20.88;48.77;99689.19;20588430;28;20393;-75
2023/04/12 03:53:53;;;;;;;1121.25;999.90;;;;;;;20.92;48.06;99673.94;20608594;28;20035;-71
2023/04/12 04:03:54;;;;;;;1130.80;999.90;;;;;;;20.94;48.81;99654.44;20603587;28;20039;-71
2023/04/12 04:13:54;;;;;;;1146.20;999.90;;;;;;;20.93;47.94;99668.56;20653605;28;20045;-68
2023/04/12 04:23:57;;;;;;;1141.25;999.90;;;;;;;21.02;49.18;99666.06;20645509;28;20053;-70
2023/04/12 04:33:57;;;;;;;1137.83;999.90;;;;;;;21.09;50.22;99672.47;20652961;28;20046;-72
2023/04/12 04:43:59;;;;;;;1117.65;999.90;;;;;;;21.11;49.67;99662.66;20668830;28;20786;-74
2023/04/12 04:54:01;;;;;;;1148.50;999.90;;;;;;;21.13;49.88;99657.25;20657681;28;20074;-70
2023/04/12 05:04:02;;;;;;;979.45;901.25;;;;;;;20.18;39.20;99648.69;20655976;28;20461;-77
2023/04/12 05:14:08;;;;;;;906.22;831.90;;;;;;;20.39;39.85;99657.41;20657305;28;20050;-75
2023/04/12 05:24:08;;;;;;;842.75;772.10;;;;;;;20.60;42.28;99653.88;20674700;28;20042;-75
2023/04/12 05:34:09;;;;;;;810.47;741.55;;;;;;;20.69;43.58;99650.47;20664821;28;20046;-74
2023/04/12 05:44:09;;;;;;;811.37;742.70;;;;;;;20.77;44.25;99652.44;20665207;28;20041;-75
2023/04/12 05:54:10;;;;;;;774.53;708.13;;;;;;;20.83;45.32;99669.50;20660790;28;20290;-76
2023/04/12 06:04:13;;;;;;;792.20;724.78;;;;;;;20.87;45.52;99689.31;20679013;28;20054;-74
2023/04/12 06:14:14;;;;;;;781.47;714.38;;;;;;;20.89;46.17;99688.22;20673869;28;20077;-75
2023/04/12 06:24:14;;;;;;;764.65;698.90;;;;;;;20.94;46.06;99696.53;20681022;28;20080;-75
2023/04/12 06:34:15;;;;;;;744.58;680.20;;;;;;;20.99;46.22;99695.31;20671083;28;20038;-71
2023/04/12 06:44:15;;;;;;;777.20;710.45;;;;;;;20.97;46.34;99692.81;20673237;28;20062;-72
2023/04/12 06:54:16;;;;;;;740.35;676.13;;;;;;;20.96;46.57;99691.16;20666117;28;20130;-71
2023/04/12 07:04:16;;;;;;;722.97;659.90;;;;;;;21.01;47.05;99688.13;20674465;28;20844;-75
2023/04/12 07:14:17;;;;;;;743.75;678.92;;;;;;;21.03;47.11;99694.06;20674332;28;20042;-74
2023/04/12 07:24:17;;;;;;;752.50;687.47;;;;;;;21.05;47.44;99685.06;20680733;28;20042;-74
2023/04/12 07:34:18;;;;;;;755.78;690.45;;;;;;;21.10;47.76;99687.31;20665291;28;20533;-74
2023/04/12 07:44:18;;;;;;;737.45;673.35;;;;;;;21.14;48.31;99701.88;20655641;28;20045;-75
2023/04/12 07:54:18;;;;;;;782.38;715.17;;;;;;;21.15;48.74;99690.34;20650485;28;20050;-74
2023/04/12 08:04:19;;;;;;;745.72;681.00;;;;;;;21.16;48.60;99709.63;20663124;28;20129;-74
2023/04/12 08:14:26;;;;;;;751.88;686.83;;;;;;;21.14;47.62;99707.16;20661333;28;20053;-74
2023/04/12 08:24:26;;;;;;;772.10;705.67;;;;;;;21.11;47.22;99707.41;20653367;28;20073;-74
2023/04/12 08:34:26;;;;;;;780.78;713.70;;;;;;;21.06;47.88;99694.63;20660856;28;20129;-74
2023/04/12 08:44:35;;;;;;;767.42;701.10;;;;;;;21.10;48.46;99697.84;20643948;28;20038;-74
2023/04/12 08:54:36;;;;;;;761.03;695.22;;;;;;;21.10;48.75;99696.03;20654092;28;20049;-74
2023/04/12 09:04:49;;;;;;;789.92;722.13;;;;;;;21.09;48.61;99694.38;20661858;28;20042;-74
2023/04/12 09:15:11;;;;;;;822.20;752.25;;;;;;;21.07;48.04;99677.06;20653289;28;20421;-74
2023/04/12 09:25:12;;;;;;;801.20;732.77;;;;;;;21.12;47.92;99669.59;20649480;28;20077;-74
2023/04/12 09:35:13;;;;;;;789.22;721.55;;;;;;;21.16;47.81;99659.59;20661714;28;20049;-74
2023/04/12 09:45:39;;;;;;;751.58;686.40;;;;;;;21.20;47.88;99650.47;20667790;28;20041;-74
2023/04/12 09:55:39;;;;;;;843.03;771.70;;;;;;;21.25;48.01;99635.94;20671389;28;20074;-74
2023/04/12 10:05:40;;;;;;;813.08;743.55;;;;;;;21.32;48.51;99627.47;20653805;28;20229;-74
2023/04/12 10:15:44;;;;;;;899.55;824.28;;;;;;;21.37;47.88;99617.34;20665805;28;20042;-74
2023/04/12 10:25:47;;;;;;;913.92;837.97;;;;;;;21.43;48.19;99615.00;20668010;28;20065;-74
2023/04/12 10:36:02;;;;;;;912.33;835.95;;;;;;;21.50;48.24;99619.72;20662995;28;20046;-74
2023/04/12 10:46:05;;;;;;;1009.00;927.15;;;;;;;21.55;48.23;99597.22;20668134;28;20046;-74
2023/04/12 10:56:30;;;;;;;1173.30;999.90;;;;;;;21.63;48.37;99603.63;20662259;28;20053;-74
2023/04/12 11:06:49;;;;;;;1014.10;931.78;;;;;;;21.69;48.82;99588.09;20670993;28;20474;-74
2023/04/12 11:17:22;;;;;;;919.15;842.00;;;;;;;21.77;48.61;99595.28;20662018;28;20042;-74
2023/04/12 11:27:24;;;;;;;890.83;815.33;;;;;;;21.85;49.01;99589.31;20668284;28;20453;-74
2023/04/12 11:37:26;;;;;;;909.70;833.07;;;;;;;21.92;48.47;99569.31;20664010;28;20046;-73
2023/04/12 11:47:27;;;;;;;932.67;854.27;;;;;;;22.00;48.38;99563.34;20670541;28;20046;-74
2023/04/12 11:57:27;;;;;;;1023.08;939.20;;;;;;;22.09;48.33;99551.09;20657840;28;20049;-74
2023/04/12 12:07:28;;;;;;;1089.03;999.03;;;;;;;22.17;48.06;99538.00;20657394;28;20038;-74
2023/04/12 12:17:29;;;;;;;962.45;881.97;;;;;;;22.26;47.85;99534.47;20665492;28;20299;-74
2023/04/12 12:27:36;;;;;;;1003.78;920.85;;;;;;;22.35;47.66;99523.06;20665058;28;20043;-74
2023/04/12 12:37:36;;;;;;;808.78;737.95;;;;;;;22.45;47.43;99514.28;20651723;28;20046;-74
2023/04/12 12:48:01;;;;;;;894.60;817.67;;;;;;;22.52;47.53;99503.00;20663141;28;20095;-74
2023/04/12 12:58:01;;;;;;;938.67;858.75;;;;;;;22.61;47.35;99501.25;20654958;28;20297;-74
2023/04/12 13:08:02;;;;;;;913.75;835.15;;;;;;;22.67;47.12;99498.03;20651561;28;20069;-74
2023/04/12 13:18:04;;;;;;;962.47;880.90;;;;;;;22.75;46.80;99493.81;20660482;28;20045;-74
2023/04/12 13:28:05;;;;;;;990.85;907.35;;;;;;;22.82;46.50;99474.56;20665714;28;20393;-71
2023/04/12 13:38:05;;;;;;;963.77;881.63;;;;;;;22.88;46.77;99481.06;20659592;28;20069;-71
2023/04/12 13:48:06;;;;;;;1000.47;915.95;;;;;;;22.97;46.86;99458.19;20664248;28;20346;-71
2023/04/12 13:58:06;;;;;;;1085.57;996.03;;;;;;;23.02;46.75;99458.56;20660876;28;20572;-70
2023/04/12 14:08:08;;;;;;;1054.30;966.70;;;;;;;23.10;46.65;99457.81;20676315;28;20050;-70
2023/04/12 14:18:08;;;;;;;1062.33;974.70;;;;;;;22.93;35.31;99455.03;20661779;28;20185;-70
2023/04/12 14:28:08;;;;;;;1188.18;999.90;;;;;;;22.92;29.86;99440.16;20660959;28;20042;-68
2023/04/12 14:38:09;;;;;;;1115.90;999.90;;;;;;;22.94;27.60;99448.78;20667578;28;20050;-69
2023/04/12 14:48:09;;;;;;;1057.25;969.13;;;;;;;22.92;27.19;99440.16;20662572;28;20038;-69
2023/04/12 14:58:11;;;;;;;1049.70;961.63;;;;;;;23.25;25.57;99426.41;20664269;28;20144;-70
2023/04/12 15:08:12;;;;;;;992.47;907.10;;;;;;;23.48;25.04;99427.50;20656250;28;20050;-68
2023/04/12 15:18:12;;;;;;;1182.72;999.90;;;;;;;23.89;27.77;99432.16;20685192;28;20057;-71
2023/04/12 15:28:14;;;;;;;1229.13;999.90;;;;;;;24.37;29.91;99421.06;20676255;28;20046;-72
2023/04/12 15:38:15;;;;;;;1268.38;999.90;;;;;;;24.75;32.25;99424.91;20673041;28;20070;-72
2023/04/12 15:48:18;;;;;;;1193.27;999.90;;;;;;;24.97;34.33;99433.19;20669574;28;20121;-71
2023/04/12 15:58:23;;;;;;;1077.05;983.40;;;;;;;25.20;35.72;99421.91;20655295;28;20057;-71
2023/04/12 16:08:26;;;;;;;904.38;822.45;;;;;;;25.65;36.36;99422.31;20667986;28;20097;-71
2023/04/12 16:18:29;;;;;;;948.78;863.97;;;;;;;25.44;28.82;99413.09;20653748;28;20746;-70
2023/04/12 16:28:36;;;;;;;969.45;884.30;;;;;;;24.81;31.00;99398.78;20646830;28;20053;-70
2023/04/12 16:38:36;;;;;;;1013.45;925.72;;;;;;;24.50;30.55;99399.41;20655593;28;20420;-71
2023/04/12 16:48:37;;;;;;;1043.55;955.03;;;;;;;24.22;31.67;99394.44;20629368;28;20127;-71
2023/04/12 16:58:37;;;;;;;1215.47;999.90;;;;;;;23.94;32.04;99395.53;20646225;28;20054;-69
2023/04/12 17:08:38;;;;;;;1229.47;999.90;;;;;;;23.61;30.87;99408.59;20627377;28;20057;-70
2023/04/12 17:18:39;;;;;;;1215.45;999.90;;;;;;;23.48;35.19;99403.72;20639461;28;20049;-70
2023/04/12 17:28:40;;;;;;;1215.63;999.90;;;;;;;23.39;38.61;99409.97;20637213;28;20419;-70
2023/04/12 17:38:41;;;;;;;1212.43;999.90;;;;;;;23.33;43.47;99411.41;20634381;28;20046;-70
2023/04/12 17:48:44;;;;;;;1211.53;999.90;;;;;;;23.24;46.28;99406.25;20660688;28;20580;-73
2023/04/12 17:58:46;;;;;;;1206.18;999.90;;;;;;;23.12;44.43;99417.06;20669483;28;20050;-70
2023/04/12 18:08:46;;;;;;;1204.73;999.90;;;;;;;23.01;45.29;99430.53;20661412;28;20120;-70
2023/04/12 18:18:47;;;;;;;1201.18;999.90;;;;;;;22.95;45.89;99412.63;20645071;28;20137;-73
2023/04/12 18:28:48;;;;;;;1202.60;999.90;;;;;;;22.89;45.89;99418.53;20652330;28;20331;-71
2023/04/12 18:38:48;;;;;;;1202.32;999.90;;;;;;;22.85;45.96;99423.28;20654773;28;20631;-72
2023/04/12 18:48:51;;;;;;;1201.20;999.90;;;;;;;22.79;46.06;99432.66;20662727;28;20053;-73
2023/04/12 18:58:55;;;;;;;1202.72;999.90;;;;;;;22.78;46.76;99440.75;20660724;28;20108;-70
2023/04/12 19:08:56;;;;;;;1195.88;999.90;;;;;;;22.65;45.67;99438.47;20659241;28;20732;-76
2023/04/12 19:18:58;;;;;;;1196.00;999.90;;;;;;;22.61;45.92;99442.41;20657744;28;20104;-75
2023/04/12 19:28:59;;;;;;;1195.68;999.90;;;;;;;22.61;45.67;99439.75;20677036;28;20505;-74
2023/04/12 19:39:00;;;;;;;1193.43;999.90;;;;;;;22.58;46.04;99446.16;20681680;28;20049;-75
2023/04/12 19:49:01;;;;;;;1193.28;999.90;;;;;;;22.53;46.28;99438.72;20668108;28;20435;-75
2023/04/12 19:59:05;;;;;;;1190.15;999.90;;;;;;;22.49;46.29;99437.34;20673238;28;20053;-75
2023/04/12 20:09:06;;;;;;;1189.45;999.90;;;;;;;22.43;46.47;99430.03;20664939;28;20045;-75
2023/04/12 20:19:07;;;;;;;1189.30;999.90;;;;;;;22.39;46.53;99426.03;20659649;28;20066;-75
2023/04/12 20:29:08;;;;;;;1187.25;999.90;;;;;;;22.34;46.46;99428.28;20657460;28;20125;-76
2023/04/12 20:39:08;;;;;;;1185.78;999.90;;;;;;;22.30;46.60;99419.81;20659683;28;20137;-76
2023/04/12 20:49:10;;;;;;;1187.53;999.90;;;;;;;22.27;46.70;99406.13;20664489;28;20038;-76
2023/04/12 20:59:10;;;;;;;1176.40;999.90;;;;;;;22.24;46.98;99407.25;20667823;28;20045;-75
2023/04/12 21:09:11;;;;;;;1180.72;999.90;;;;;;;22.20;46.92;99396.16;20673483;28;20046;-75
2023/04/12 21:19:12;;;;;;;1181.30;999.90;;;;;;;22.21;47.54;99392.53;20666158;28;20097;-74
2023/04/12 21:29:12;;;;;;;1185.72;999.90;;;;;;;22.23;47.39;99405.59;20666233;28;21198;-74
2023/04/12 21:39:13;;;;;;;1186.75;999.90;;;;;;;22.21;47.50;99402.25;20684024;28;20046;-72
2023/04/12 21:49:13;;;;;;;1179.95;999.90;;;;;;;22.18;47.50;99386.72;20685197;28;20111;-72
2023/04/12 21:59:14;;;;;;;1170.95;999.90;;;;;;;22.15;47.25;99374.66;20680649;28;20046;-73
2023/04/12 22:09:14;;;;;;;1175.20;999.90;;;;;;;22.13;47.38;99362.63;20686875;28;20042;-72
2023/04/12 22:19:15;;;;;;;1174.38;999.90;;;;;;;22.09;47.79;99361.28;20673197;28;20069;-73
2023/04/12 22:29:16;;;;;;;1173.03;999.90;;;;;;;22.03;47.72;99357.41;20681298;28;20046;-73
2023/04/12 22:39:20;;;;;;;1169.35;999.90;;;;;;;22.01;47.92;99349.66;20680165;28;20046;-75
2023/04/12 22:49:26;;;;;;;1173.30;999.90;;;;;;;21.99;47.84;99348.16;20679558;28;20876;-74
2023/04/12 22:59:27;;;;;;;1151.47;999.90;;;;;;;21.97;47.99;99352.75;20686567;28;20076;-73
2023/04/12 23:09:28;;;;;;;1137.93;999.90;;;;;;;21.93;48.18;99351.41;20681074;28;20103;-73
2023/04/12 23:19:28;;;;;;;1150.40;999.90;;;;;;;21.90;47.77;99355.16;20683974;28;20053;-74
2023/04/12 23:29:29;;;;;;;1147.80;999.90;;;;;;;21.89;47.99;99341.13;20669648;28;20144;-73
2023/04/12 23:39:30;;;;;;;1104.53;999.90;;;;;;;21.86;48.15;99341.44;20677592;28;20054;-74
2023/04/12 23:49:31;;;;;;;1094.13;999.90;;;;;;;21.84;47.94;99322.31;20678420;28;20088;-73
2023/04/12 23:59:31;;;;;;;1104.63;999.90;;;;;;;21.82;48.24;99307.63;20667887;28;20039;-74
